sensor_id;sensor_type;location;lat;lon;timestamp;pressure;altitude;pressure_sealevel;temperature;humidity
3250;BME280;1637;42.020;23.992;2022-12-20T00:01:06;94484.16;;;-1.34;94.59
3250;BME280;1637;42.020;23.992;2022-12-20T00:03:33;94528.06;;;-1.16;95.47
3250;BME280;1637;42.020;23.992;2022-12-20T00:06:00;94504.16;;;-1.01;93.79
3250;BME280;1637;42.020;23.992;2022-12-20T00:08:28;94505.91;;;-1.29;94.71
3250;BME280;1637;42.020;23.992;2022-12-20T00:10:55;94503.31;;;-1.15;95.63
3250;BME280;1637;42.020;23.992;2022-12-20T00:13:21;94498.06;;;-1.15;95.02
3250;BME280;1637;42.020;23.992;2022-12-20T00:15:48;94500.56;;;-1.05;95.13
3250;BME280;1637;42.020;23.992;2022-12-20T00:18:15;94506.00;;;-1.01;94.38
3250;BME280;1637;42.020;23.992;2022-12-20T00:20:42;94507.66;;;-1.06;94.44
3250;BME280;1637;42.020;23.992;2022-12-20T00:23:09;94460.56;;;-1.40;94.59
3250;BME280;1637;42.020;23.992;2022-12-20T00:25:37;94505.19;;;-1.16;94.16
3250;BME280;1637;42.020;23.992;2022-12-20T00:28:04;94507.47;;;-1.28;94.24
3250;BME280;1637;42.020;23.992;2022-12-20T00:30:30;94502.41;;;-1.24;94.39
3250;BME280;1637;42.020;23.992;2022-12-20T00:32:57;94511.22;;;-1.15;94.15
3250;BME280;1637;42.020;23.992;2022-12-20T00:35:24;94511.28;;;-1.39;94.21
3250;BME280;1637;42.020;23.992;2022-12-20T00:37:51;94514.06;;;-1.30;95.02
3250;BME280;1637;42.020;23.992;2022-12-20T00:40:18;94509.22;;;-1.23;95.00
3250;BME280;1637;42.020;23.992;2022-12-20T00:42:46;94512.56;;;-1.18;94.27
3250;BME280;1637;42.020;23.992;2022-12-20T00:45:13;94518.31;;;-1.16;93.84
3250;BME280;1637;42.020;23.992;2022-12-20T00:47:40;94514.13;;;-1.35;93.88
3250;BME280;1637;42.020;23.992;2022-12-20T00:50:07;94504.38;;;-1.54;95.81
3250;BME280;1637;42.020;23.992;2022-12-20T00:52:34;94499.69;;;-1.57;96.34
3250;BME280;1637;42.020;23.992;2022-12-20T00:55:00;94510.09;;;-1.47;96.39
3250;BME280;1637;42.020;23.992;2022-12-20T00:57:27;94503.59;;;-1.97;97.60
3250;BME280;1637;42.020;23.992;2022-12-20T00:59:55;94496.69;;;-1.88;97.97
3250;BME280;1637;42.020;23.992;2022-12-20T01:02:22;94502.47;;;-1.48;97.48
3250;BME280;1637;42.020;23.992;2022-12-20T01:04:49;94502.28;;;-1.33;96.97
3250;BME280;1637;42.020;23.992;2022-12-20T01:07:16;94497.56;;;-1.36;96.58
3250;BME280;1637;42.020;23.992;2022-12-20T01:09:43;94486.22;;;-1.31;96.86
3250;BME280;1637;42.020;23.992;2022-12-20T01:12:10;94496.38;;;-1.25;97.21
3250;BME280;1637;42.020;23.992;2022-12-20T01:14:37;94493.25;;;-1.27;96.75
3250;BME280;1637;42.020;23.992;2022-12-20T01:17:08;94491.31;;;-1.40;96.31
3250;BME280;1637;42.020;23.992;2022-12-20T01:19:34;94497.91;;;-1.43;97.08
3250;BME280;1637;42.020;23.992;2022-12-20T01:22:01;94448.56;;;-1.64;96.51
3250;BME280;1637;42.020;23.992;2022-12-20T01:24:28;94496.94;;;-1.28;96.18
3250;BME280;1637;42.020;23.992;2022-12-20T01:26:55;94503.03;;;-1.14;96.34
3250;BME280;1637;42.020;23.992;2022-12-20T01:29:22;94497.00;;;-1.33;96.63
3250;BME280;1637;42.020;23.992;2022-12-20T01:31:49;94471.56;;;-1.38;97.83
3250;BME280;1637;42.020;23.992;2022-12-20T01:34:17;94492.50;;;-0.95;95.41
3250;BME280;1637;42.020;23.992;2022-12-20T01:36:44;94490.34;;;-1.07;94.37
3250;BME280;1637;42.020;23.992;2022-12-20T01:39:13;94484.50;;;-1.60;95.64
3250;BME280;1637;42.020;23.992;2022-12-20T01:41:41;94476.91;;;-1.61;96.89
3250;BME280;1637;42.020;23.992;2022-12-20T01:47:08;94480.84;;;-0.89;92.98
3250;BME280;1637;42.020;23.992;2022-12-20T01:49:39;94473.06;;;-0.80;92.72
3250;BME280;1637;42.020;23.992;2022-12-20T01:52:10;94470.97;;;-0.97;92.85
3250;BME280;1637;42.020;23.992;2022-12-20T01:54:40;94463.31;;;-0.80;92.55
3250;BME280;1637;42.020;23.992;2022-12-20T01:57:15;94470.00;;;-0.68;90.86
3250;BME280;1637;42.020;23.992;2022-12-20T01:59:45;94461.69;;;-0.76;90.67
3250;BME280;1637;42.020;23.992;2022-12-20T02:02:13;94446.13;;;-0.58;90.24
3250;BME280;1637;42.020;23.992;2022-12-20T02:04:41;94450.22;;;-0.66;89.89
3250;BME280;1637;42.020;23.992;2022-12-20T02:07:12;94416.44;;;-0.91;89.31
3250;BME280;1637;42.020;23.992;2022-12-20T02:09:42;94447.81;;;-0.62;89.30
3250;BME280;1637;42.020;23.992;2022-12-20T02:12:11;94452.94;;;-0.57;89.72
3250;BME280;1637;42.020;23.992;2022-12-20T02:14:49;94416.75;;;-0.79;89.19
3250;BME280;1637;42.020;23.992;2022-12-20T02:17:27;94425.19;;;-0.63;89.72
3250;BME280;1637;42.020;23.992;2022-12-20T02:23:27;94428.03;;;-0.46;89.05
3250;BME280;1637;42.020;23.992;2022-12-20T02:26:13;94429.63;;;-0.78;89.91
3250;BME280;1637;42.020;23.992;2022-12-20T02:31:42;94434.31;;;-0.75;90.22
3250;BME280;1637;42.020;23.992;2022-12-20T02:34:12;94424.22;;;-1.00;91.30
3250;BME280;1637;42.020;23.992;2022-12-20T02:36:41;94415.53;;;-1.33;92.10
3250;BME280;1637;42.020;23.992;2022-12-20T02:39:14;94338.53;;;-1.66;91.83
3250;BME280;1637;42.020;23.992;2022-12-20T02:41:43;94415.72;;;-1.11;92.38
3250;BME280;1637;42.020;23.992;2022-12-20T02:44:14;94448.34;;;-1.12;90.89
3250;BME280;1637;42.020;23.992;2022-12-20T02:47:03;94419.19;;;-1.15;91.11
3250;BME280;1637;42.020;23.992;2022-12-20T02:49:33;94419.78;;;-1.18;92.01
3250;BME280;1637;42.020;23.992;2022-12-20T02:52:04;94418.47;;;-1.02;92.44
3250;BME280;1637;42.020;23.992;2022-12-20T02:54:33;94417.81;;;-0.80;90.44
3250;BME280;1637;42.020;23.992;2022-12-20T02:57:05;94390.81;;;-0.99;90.53
3250;BME280;1637;42.020;23.992;2022-12-20T02:59:42;94421.13;;;-1.21;92.28
3250;BME280;1637;42.020;23.992;2022-12-20T03:02:12;94418.59;;;-1.45;95.16
3250;BME280;1637;42.020;23.992;2022-12-20T03:04:40;94414.41;;;-1.64;98.34
3250;BME280;1637;42.020;23.992;2022-12-20T03:07:09;94413.06;;;-1.62;100.00
3250;BME280;1637;42.020;23.992;2022-12-20T03:09:38;94411.72;;;-1.97;100.00
3250;BME280;1637;42.020;23.992;2022-12-20T03:12:07;94406.88;;;-2.09;100.00
3250;BME280;1637;42.020;23.992;2022-12-20T03:14:34;94400.19;;;-2.20;100.00
3250;BME280;1637;42.020;23.992;2022-12-20T03:17:01;94397.34;;;-2.23;100.00
3250;BME280;1637;42.020;23.992;2022-12-20T03:19:29;94411.00;;;-2.26;100.00
3250;BME280;1637;42.020;23.992;2022-12-20T03:21:56;94400.97;;;-2.43;100.00
3250;BME280;1637;42.020;23.992;2022-12-20T03:24:23;94412.56;;;-2.25;100.00
3250;BME280;1637;42.020;23.992;2022-12-20T03:26:50;94406.47;;;-2.39;100.00
3250;BME280;1637;42.020;23.992;2022-12-20T03:29:17;94404.72;;;-2.25;100.00
3250;BME280;1637;42.020;23.992;2022-12-20T03:31:44;94406.13;;;-2.33;100.00
3250;BME280;1637;42.020;23.992;2022-12-20T03:34:10;94297.09;;;-2.87;100.00
3250;BME280;1637;42.020;23.992;2022-12-20T03:36:39;94403.38;;;-2.23;100.00
3250;BME280;1637;42.020;23.992;2022-12-20T03:39:05;94360.06;;;-2.44;100.00
3250;BME280;1637;42.020;23.992;2022-12-20T03:41:32;94409.09;;;-1.78;100.00
3250;BME280;1637;42.020;23.992;2022-12-20T03:43:59;94403.69;;;-1.87;100.00
3250;BME280;1637;42.020;23.992;2022-12-20T03:46:26;94400.88;;;-1.90;100.00
3250;BME280;1637;42.020;23.992;2022-12-20T03:48:53;94406.31;;;-1.87;99.40
3250;BME280;1637;42.020;23.992;2022-12-20T03:51:20;94404.97;;;-2.03;100.00
3250;BME280;1637;42.020;23.992;2022-12-20T03:53:48;94408.00;;;-2.15;100.00
3250;BME280;1637;42.020;23.992;2022-12-20T03:56:15;94362.22;;;-2.27;100.00
3250;BME280;1637;42.020;23.992;2022-12-20T03:58:42;94403.00;;;-1.92;100.00
3250;BME280;1637;42.020;23.992;2022-12-20T04:01:23;94402.25;;;-2.17;100.00
3250;BME280;1637;42.020;23.992;2022-12-20T04:03:50;94389.38;;;-2.37;100.00
3250;BME280;1637;42.020;23.992;2022-12-20T04:06:17;94397.47;;;-2.33;100.00
3250;BME280;1637;42.020;23.992;2022-12-20T04:08:45;94403.75;;;-2.11;100.00
3250;BME280;1637;42.020;23.992;2022-12-20T04:11:13;94402.78;;;-1.96;100.00
3250;BME280;1637;42.020;23.992;2022-12-20T04:13:44;94411.88;;;-1.88;100.00
3250;BME280;1637;42.020;23.992;2022-12-20T04:16:11;94396.34;;;-2.27;100.00
3250;BME280;1637;42.020;23.992;2022-12-20T04:18:38;94406.91;;;-1.90;100.00
3250;BME280;1637;42.020;23.992;2022-12-20T04:21:06;94412.22;;;-1.95;100.00
3250;BME280;1637;42.020;23.992;2022-12-20T04:23:33;94384.63;;;-1.92;100.00
3250;BME280;1637;42.020;23.992;2022-12-20T04:26:01;94408.81;;;-1.58;100.00
3250;BME280;1637;42.020;23.992;2022-12-20T04:28:30;94408.41;;;-1.46;99.82
3250;BME280;1637;42.020;23.992;2022-12-20T04:30:57;94382.41;;;-1.66;98.58
3250;BME280;1637;42.020;23.992;2022-12-20T04:33:25;94409.94;;;-1.64;99.06
3250;BME280;1637;42.020;23.992;2022-12-20T04:35:52;94416.19;;;-1.41;98.79
3250;BME280;1637;42.020;23.992;2022-12-20T04:38:20;94417.25;;;-1.42;97.52
3250;BME280;1637;42.020;23.992;2022-12-20T04:40:47;94414.13;;;-1.25;97.49
3250;BME280;1637;42.020;23.992;2022-12-20T04:43:14;94378.22;;;-1.49;95.24
3250;BME280;1637;42.020;23.992;2022-12-20T04:45:42;94408.19;;;-1.50;93.81
3250;BME280;1637;42.020;23.992;2022-12-20T04:48:09;94412.41;;;-1.35;92.22
3250;BME280;1637;42.020;23.992;2022-12-20T04:50:36;94386.81;;;-1.62;91.82
3250;BME280;1637;42.020;23.992;2022-12-20T04:53:03;94412.47;;;-1.21;91.05
3250;BME280;1637;42.020;23.992;2022-12-20T04:55:47;94413.13;;;-1.29;91.86
3250;BME280;1637;42.020;23.992;2022-12-20T04:58:14;94410.34;;;-1.38;90.21
3250;BME280;1637;42.020;23.992;2022-12-20T05:00:42;94406.88;;;-1.33;90.92
3250;BME280;1637;42.020;23.992;2022-12-20T05:03:09;94405.44;;;-1.45;90.70
3250;BME280;1637;42.020;23.992;2022-12-20T05:05:36;94402.44;;;-1.52;90.42
3250;BME280;1637;42.020;23.992;2022-12-20T05:08:03;94405.13;;;-1.57;90.39
3250;BME280;1637;42.020;23.992;2022-12-20T05:10:30;94403.19;;;-1.32;88.25
3250;BME280;1637;42.020;23.992;2022-12-20T05:12:57;94403.78;;;-1.54;87.59
3250;BME280;1637;42.020;23.992;2022-12-20T05:15:24;94398.66;;;-1.64;89.25
3250;BME280;1637;42.020;23.992;2022-12-20T05:17:52;94408.41;;;-2.08;91.45
3250;BME280;1637;42.020;23.992;2022-12-20T05:20:23;94406.03;;;-2.28;92.67
3250;BME280;1637;42.020;23.992;2022-12-20T05:22:50;94407.75;;;-2.37;94.13
3250;BME280;1637;42.020;23.992;2022-12-20T05:25:35;94402.94;;;-2.30;94.07
3250;BME280;1637;42.020;23.992;2022-12-20T05:28:30;94399.09;;;-2.37;94.05
3250;BME280;1637;42.020;23.992;2022-12-20T05:30:57;94406.44;;;-2.16;93.79
3250;BME280;1637;42.020;23.992;2022-12-20T05:33:26;94401.19;;;-2.16;93.45
3250;BME280;1637;42.020;23.992;2022-12-20T05:35:53;94393.44;;;-2.07;91.96
3250;BME280;1637;42.020;23.992;2022-12-20T05:38:20;94399.31;;;-2.82;93.68
3250;BME280;1637;42.020;23.992;2022-12-20T05:40:48;94404.63;;;-2.39;93.78
3250;BME280;1637;42.020;23.992;2022-12-20T05:43:16;94393.19;;;-2.05;90.93
3250;BME280;1637;42.020;23.992;2022-12-20T05:45:45;94351.59;;;-2.36;89.72
3250;BME280;1637;42.020;23.992;2022-12-20T05:48:12;94398.41;;;-2.05;89.19
3250;BME280;1637;42.020;23.992;2022-12-20T05:50:41;94379.19;;;-2.20;88.97
3250;BME280;1637;42.020;23.992;2022-12-20T05:53:09;94395.78;;;-2.05;90.94
3250;BME280;1637;42.020;23.992;2022-12-20T05:55:36;94401.53;;;-2.22;92.37
3250;BME280;1637;42.020;23.992;2022-12-20T05:58:05;94395.72;;;-2.67;92.65
3250;BME280;1637;42.020;23.992;2022-12-20T06:00:32;94392.84;;;-2.42;92.36
3250;BME280;1637;42.020;23.992;2022-12-20T06:02:59;94395.00;;;-2.49;90.48
3250;BME280;1637;42.020;23.992;2022-12-20T06:05:25;94393.09;;;-1.25;100.00
3250;BME280;1637;42.020;23.992;2022-12-20T06:07:54;94399.72;;;-2.03;98.00
3250;BME280;1637;42.020;23.992;2022-12-20T06:10:20;94402.41;;;-2.08;91.45
3250;BME280;1637;42.020;23.992;2022-12-20T06:12:47;94396.50;;;-2.19;90.44
3250;BME280;1637;42.020;23.992;2022-12-20T06:15:14;94348.44;;;-3.09;91.08
3250;BME280;1637;42.020;23.992;2022-12-20T06:17:41;94402.94;;;-3.06;92.01
3250;BME280;1637;42.020;23.992;2022-12-20T06:20:08;94405.72;;;-2.69;92.14
3250;BME280;1637;42.020;23.992;2022-12-20T06:22:36;94386.75;;;-2.61;89.67
3250;BME280;1637;42.020;23.992;2022-12-20T06:25:05;94410.13;;;-2.64;90.47
3250;BME280;1637;42.020;23.992;2022-12-20T06:27:33;94408.53;;;-2.36;89.36
3250;BME280;1637;42.020;23.992;2022-12-20T06:30:00;94415.66;;;-2.18;87.79
3250;BME280;1637;42.020;23.992;2022-12-20T06:32:27;94319.13;;;-2.88;88.32
3250;BME280;1637;42.020;23.992;2022-12-20T06:34:54;94417.22;;;-2.41;88.92
3250;BME280;1637;42.020;23.992;2022-12-20T06:37:21;94404.53;;;-2.10;88.28
3250;BME280;1637;42.020;23.992;2022-12-20T06:39:47;94408.34;;;-2.21;87.17
3250;BME280;1637;42.020;23.992;2022-12-20T06:42:16;94410.97;;;-2.21;87.35
3250;BME280;1637;42.020;23.992;2022-12-20T06:44:42;94406.97;;;-2.37;86.72
3250;BME280;1637;42.020;23.992;2022-12-20T06:47:10;94414.56;;;-1.56;86.00
3250;BME280;1637;42.020;23.992;2022-12-20T06:49:37;94418.66;;;-0.11;80.56
3250;BME280;1637;42.020;23.992;2022-12-20T06:52:03;94377.25;;;0.53;76.72
3250;BME280;1637;42.020;23.992;2022-12-20T06:54:30;94419.16;;;0.99;73.63
3250;BME280;1637;42.020;23.992;2022-12-20T06:57:00;94416.19;;;1.54;72.60
3250;BME280;1637;42.020;23.992;2022-12-20T06:59:31;94419.97;;;1.61;70.63
3250;BME280;1637;42.020;23.992;2022-12-20T07:01:59;94408.25;;;0.69;71.41
3250;BME280;1637;42.020;23.992;2022-12-20T07:04:26;94416.19;;;1.54;69.75
3250;BME280;1637;42.020;23.992;2022-12-20T07:06:53;94431.09;;;1.89;68.71
3250;BME280;1637;42.020;23.992;2022-12-20T07:09:21;94417.81;;;3.41;67.71
3250;BME280;1637;42.020;23.992;2022-12-20T07:11:48;94430.75;;;3.34;64.27
3250;BME280;1637;42.020;23.992;2022-12-20T07:14:16;94420.56;;;3.62;63.40
3250;BME280;1637;42.020;23.992;2022-12-20T07:16:44;94426.63;;;3.62;63.55
3250;BME280;1637;42.020;23.992;2022-12-20T07:19:11;94428.78;;;3.05;63.70
3250;BME280;1637;42.020;23.992;2022-12-20T07:21:38;94428.19;;;3.63;62.40
3250;BME280;1637;42.020;23.992;2022-12-20T07:24:06;94425.94;;;3.19;63.63
3250;BME280;1637;42.020;23.992;2022-12-20T07:26:34;94428.41;;;3.88;60.16
3250;BME280;1637;42.020;23.992;2022-12-20T07:29:01;94411.03;;;2.54;62.38
3250;BME280;1637;42.020;23.992;2022-12-20T07:31:28;94412.41;;;3.75;61.80
3250;BME280;1637;42.020;23.992;2022-12-20T07:33:56;94410.84;;;4.12;60.01
3250;BME280;1637;42.020;23.992;2022-12-20T07:36:23;94404.69;;;4.71;60.77
3250;BME280;1637;42.020;23.992;2022-12-20T07:38:50;94412.75;;;4.33;60.05
3250;BME280;1637;42.020;23.992;2022-12-20T07:41:17;94404.63;;;4.08;58.67
3250;BME280;1637;42.020;23.992;2022-12-20T07:43:44;94373.75;;;4.75;58.07
3250;BME280;1637;42.020;23.992;2022-12-20T07:46:13;94410.31;;;6.01;57.01
3250;BME280;1637;42.020;23.992;2022-12-20T07:48:40;94404.66;;;6.15;55.66
3250;BME280;1637;42.020;23.992;2022-12-20T07:51:11;94413.16;;;6.57;53.89
3250;BME280;1637;42.020;23.992;2022-12-20T07:53:42;94400.88;;;6.93;53.49
3250;BME280;1637;42.020;23.992;2022-12-20T07:56:11;94402.47;;;7.37;52.33
3250;BME280;1637;42.020;23.992;2022-12-20T07:58:40;94398.72;;;4.95;56.77
3250;BME280;1637;42.020;23.992;2022-12-20T08:01:09;94382.03;;;6.33;56.46
3250;BME280;1637;42.020;23.992;2022-12-20T08:03:40;94404.44;;;6.84;53.46
3250;BME280;1637;42.020;23.992;2022-12-20T08:06:11;94399.19;;;4.76;56.77
3250;BME280;1637;42.020;23.992;2022-12-20T08:08:40;94393.34;;;3.35;60.45
3250;BME280;1637;42.020;23.992;2022-12-20T08:11:09;94390.47;;;3.66;60.73
3250;BME280;1637;42.020;23.992;2022-12-20T08:13:37;94384.69;;;3.18;63.63
3250;BME280;1637;42.020;23.992;2022-12-20T08:16:05;94387.63;;;3.16;62.30
3250;BME280;1637;42.020;23.992;2022-12-20T08:18:32;94384.78;;;6.25;57.24
3250;BME280;1637;42.020;23.992;2022-12-20T08:20:59;94387.28;;;6.70;54.37
3250;BME280;1637;42.020;23.992;2022-12-20T08:23:27;94375.94;;;4.02;58.15
3250;BME280;1637;42.020;23.992;2022-12-20T08:25:54;94374.47;;;4.63;59.79
3250;BME280;1637;42.020;23.992;2022-12-20T08:28:22;94383.66;;;7.46;52.97
3250;BME280;1637;42.020;23.992;2022-12-20T08:30:49;94389.31;;;9.09;50.22
3250;BME280;1637;42.020;23.992;2022-12-20T08:33:16;94368.78;;;4.73;57.85
3250;BME280;1637;42.020;23.992;2022-12-20T08:35:43;94365.06;;;3.65;60.55
3250;BME280;1637;42.020;23.992;2022-12-20T08:38:10;94383.00;;;6.93;55.76
3250;BME280;1637;42.020;23.992;2022-12-20T08:40:38;94362.06;;;4.88;55.75
3250;BME280;1637;42.020;23.992;2022-12-20T08:43:05;94364.38;;;4.36;59.87
3250;BME280;1637;42.020;23.992;2022-12-20T08:45:31;94351.81;;;4.66;59.30
3250;BME280;1637;42.020;23.992;2022-12-20T08:47:58;94355.28;;;5.69;57.36
3250;BME280;1637;42.020;23.992;2022-12-20T08:50:25;94350.81;;;7.14;54.86
3250;BME280;1637;42.020;23.992;2022-12-20T08:52:52;94353.78;;;8.70;49.84
3250;BME280;1637;42.020;23.992;2022-12-20T08:55:19;94343.59;;;7.74;51.24
3250;BME280;1637;42.020;23.992;2022-12-20T08:57:47;94351.56;;;8.72;50.92
3250;BME280;1637;42.020;23.992;2022-12-20T09:00:14;94351.03;;;8.66;49.00
3250;BME280;1637;42.020;23.992;2022-12-20T09:02:41;94319.75;;;8.32;49.20
3250;BME280;1637;42.020;23.992;2022-12-20T09:05:09;94334.72;;;8.01;50.13
3250;BME280;1637;42.020;23.992;2022-12-20T09:07:36;94331.38;;;9.36;46.64
3250;BME280;1637;42.020;23.992;2022-12-20T09:10:03;94297.50;;;7.57;50.48
3250;BME280;1637;42.020;23.992;2022-12-20T09:12:30;94318.13;;;7.76;49.49
3250;BME280;1637;42.020;23.992;2022-12-20T09:14:58;94316.97;;;7.30;50.63
3250;BME280;1637;42.020;23.992;2022-12-20T09:17:25;94311.44;;;9.29;45.96
3250;BME280;1637;42.020;23.992;2022-12-20T09:19:52;94294.19;;;6.73;53.11
3250;BME280;1637;42.020;23.992;2022-12-20T09:22:19;94298.75;;;6.33;52.97
3250;BME280;1637;42.020;23.992;2022-12-20T09:24:46;94285.19;;;5.37;56.42
3250;BME280;1637;42.020;23.992;2022-12-20T09:27:13;94289.31;;;5.95;55.45
3250;BME280;1637;42.020;23.992;2022-12-20T09:29:40;94286.88;;;7.92;51.52
3250;BME280;1637;42.020;23.992;2022-12-20T09:32:08;94266.34;;;5.17;56.38
3250;BME280;1637;42.020;23.992;2022-12-20T09:34:35;94284.69;;;6.88;53.00
3250;BME280;1637;42.020;23.992;2022-12-20T09:37:02;94285.19;;;7.84;49.90
3250;BME280;1637;42.020;23.992;2022-12-20T09:39:29;94276.16;;;7.26;51.00
3250;BME280;1637;42.020;23.992;2022-12-20T09:41:56;94284.22;;;8.27;50.02
3250;BME280;1637;42.020;23.992;2022-12-20T09:44:26;94265.84;;;8.61;48.31
3250;BME280;1637;42.020;23.992;2022-12-20T09:46:57;94259.47;;;7.29;50.76
3250;BME280;1637;42.020;23.992;2022-12-20T09:49:30;94268.34;;;7.17;52.38
3250;BME280;1637;42.020;23.992;2022-12-20T09:52:24;94252.50;;;6.65;52.97
3250;BME280;1637;42.020;23.992;2022-12-20T09:54:59;94259.38;;;7.10;53.31
3250;BME280;1637;42.020;23.992;2022-12-20T09:57:42;94251.06;;;6.68;53.77
3250;BME280;1637;42.020;23.992;2022-12-20T10:00:15;94239.88;;;7.06;51.36
3250;BME280;1637;42.020;23.992;2022-12-20T10:02:42;94245.34;;;7.76;50.55
3250;BME280;1637;42.020;23.992;2022-12-20T10:05:14;94235.88;;;7.78;51.46
3250;BME280;1637;42.020;23.992;2022-12-20T10:07:49;94228.13;;;6.63;53.72
3250;BME280;1637;42.020;23.992;2022-12-20T10:10:40;94226.81;;;6.85;52.35
3250;BME280;1637;42.020;23.992;2022-12-20T10:13:20;94189.34;;;5.17;54.97
3250;BME280;1637;42.020;23.992;2022-12-20T10:15:51;94217.59;;;5.86;54.74
3250;BME280;1637;42.020;23.992;2022-12-20T10:18:31;94212.19;;;6.79;53.59
3250;BME280;1637;42.020;23.992;2022-12-20T10:21:07;94202.41;;;7.14;53.00
3250;BME280;1637;42.020;23.992;2022-12-20T10:23:41;94198.44;;;7.08;51.45
3250;BME280;1637;42.020;23.992;2022-12-20T10:26:11;94203.84;;;6.96;50.13
3250;BME280;1637;42.020;23.992;2022-12-20T10:28:39;94201.25;;;7.63;50.16
3250;BME280;1637;42.020;23.992;2022-12-20T10:31:10;94185.91;;;7.09;52.12
3250;BME280;1637;42.020;23.992;2022-12-20T10:33:38;94178.44;;;6.11;52.43
3250;BME280;1637;42.020;23.992;2022-12-20T10:36:22;94170.06;;;5.33;55.84
3250;BME280;1637;42.020;23.992;2022-12-20T10:38:52;94166.50;;;5.53;55.68
3250;BME280;1637;42.020;23.992;2022-12-20T10:41:21;94163.06;;;6.05;54.33
3250;BME280;1637;42.020;23.992;2022-12-20T10:43:54;94177.84;;;6.46;52.24
3250;BME280;1637;42.020;23.992;2022-12-20T10:46:22;94138.09;;;6.37;52.95
3250;BME280;1637;42.020;23.992;2022-12-20T10:48:49;94150.72;;;6.12;53.46
3250;BME280;1637;42.020;23.992;2022-12-20T10:51:18;94138.34;;;6.04;53.08
3250;BME280;1637;42.020;23.992;2022-12-20T10:53:52;94129.56;;;6.16;52.29
3250;BME280;1637;42.020;23.992;2022-12-20T10:56:21;94128.97;;;5.82;53.33
3250;BME280;1637;42.020;23.992;2022-12-20T10:58:53;94125.22;;;5.96;51.37
3250;BME280;1637;42.020;23.992;2022-12-20T11:01:22;94122.16;;;6.09;51.50
3250;BME280;1637;42.020;23.992;2022-12-20T11:03:56;94116.44;;;6.23;50.58
3250;BME280;1637;42.020;23.992;2022-12-20T11:06:26;94106.91;;;4.77;53.20
3250;BME280;1637;42.020;23.992;2022-12-20T11:09:13;94068.03;;;4.12;54.76
3250;BME280;1637;42.020;23.992;2022-12-20T11:11:59;94103.38;;;4.86;52.13
3250;BME280;1637;42.020;23.992;2022-12-20T11:14:27;94094.69;;;5.25;51.52
3250;BME280;1637;42.020;23.992;2022-12-20T11:16:55;94095.53;;;5.53;49.36
3250;BME280;1637;42.020;23.992;2022-12-20T11:19:36;94097.78;;;5.27;47.13
3250;BME280;1637;42.020;23.992;2022-12-20T11:22:15;94079.03;;;4.47;47.58
3250;BME280;1637;42.020;23.992;2022-12-20T11:24:53;94084.13;;;4.76;46.53
3250;BME280;1637;42.020;23.992;2022-12-20T11:27:30;94077.81;;;4.69;45.09
3250;BME280;1637;42.020;23.992;2022-12-20T11:30:07;94069.53;;;4.82;45.20
3250;BME280;1637;42.020;23.992;2022-12-20T11:35:40;94058.44;;;5.17;45.94
3250;BME280;1637;42.020;23.992;2022-12-20T11:38:20;94049.03;;;5.07;45.63
3250;BME280;1637;42.020;23.992;2022-12-20T11:40:54;94054.56;;;5.55;46.74
3250;BME280;1637;42.020;23.992;2022-12-20T11:43:39;94036.09;;;5.06;46.81
3250;BME280;1637;42.020;23.992;2022-12-20T11:46:20;94031.50;;;5.31;45.46
3250;BME280;1637;42.020;23.992;2022-12-20T11:49:21;94040.84;;;5.40;45.28
3250;BME280;1637;42.020;23.992;2022-12-20T11:52:01;94030.34;;;5.04;47.56
3250;BME280;1637;42.020;23.992;2022-12-20T11:54:34;94028.28;;;5.37;46.93
3250;BME280;1637;42.020;23.992;2022-12-20T11:57:06;94027.00;;;5.47;46.71
3250;BME280;1637;42.020;23.992;2022-12-20T11:59:40;94019.38;;;5.05;48.67
3250;BME280;1637;42.020;23.992;2022-12-20T12:02:11;94015.34;;;5.24;48.58
3250;BME280;1637;42.020;23.992;2022-12-20T12:04:41;93993.38;;;5.11;49.03
3250;BME280;1637;42.020;23.992;2022-12-20T12:07:14;94013.28;;;5.17;49.52
3250;BME280;1637;42.020;23.992;2022-12-20T12:09:49;94007.25;;;5.32;50.26
3250;BME280;1637;42.020;23.992;2022-12-20T12:12:24;94008.25;;;5.28;52.34
3250;BME280;1637;42.020;23.992;2022-12-20T12:14:58;94001.75;;;4.61;53.79
3250;BME280;1637;42.020;23.992;2022-12-20T12:17:33;94004.75;;;4.23;56.59
3250;BME280;1637;42.020;23.992;2022-12-20T12:20:17;93997.34;;;4.53;56.10
3250;BME280;1637;42.020;23.992;2022-12-20T12:22:48;93992.78;;;4.77;55.27
3250;BME280;1637;42.020;23.992;2022-12-20T12:25:17;93988.41;;;5.37;53.99
3250;BME280;1637;42.020;23.992;2022-12-20T12:27:46;93986.34;;;5.31;53.80
3250;BME280;1637;42.020;23.992;2022-12-20T12:30:14;93992.28;;;5.83;53.03
3250;BME280;1637;42.020;23.992;2022-12-20T12:32:44;93962.22;;;4.96;54.36
3250;BME280;1637;42.020;23.992;2022-12-20T12:35:37;93986.44;;;4.94;54.68
3250;BME280;1637;42.020;23.992;2022-12-20T12:38:30;93979.44;;;5.14;54.60
3250;BME280;1637;42.020;23.992;2022-12-20T12:41:27;93982.13;;;5.58;52.83
3250;BME280;1637;42.020;23.992;2022-12-20T12:44:02;93973.66;;;4.72;54.29
3250;BME280;1637;42.020;23.992;2022-12-20T12:46:33;93962.97;;;4.56;53.46
3250;BME280;1637;42.020;23.992;2022-12-20T12:49:03;93965.38;;;4.73;53.92
3250;BME280;1637;42.020;23.992;2022-12-20T12:51:36;93967.63;;;4.23;55.06
3250;BME280;1637;42.020;23.992;2022-12-20T12:54:21;93968.84;;;4.13;55.95
3250;BME280;1637;42.020;23.992;2022-12-20T12:56:49;93964.09;;;4.31;55.74
3250;BME280;1637;42.020;23.992;2022-12-20T12:59:40;93940.66;;;4.33;55.25
3250;BME280;1637;42.020;23.992;2022-12-20T13:05:34;93952.38;;;5.24;52.14
3250;BME280;1637;42.020;23.992;2022-12-20T13:08:01;93974.69;;;5.07;50.14
3250;BME280;1637;42.020;23.992;2022-12-20T13:10:58;93968.94;;;5.05;50.99
3250;BME280;1637;42.020;23.992;2022-12-20T13:13:25;93967.19;;;4.97;51.38
3250;BME280;1637;42.020;23.992;2022-12-20T13:16:25;93976.44;;;4.63;52.14
3250;BME280;1637;42.020;23.992;2022-12-20T13:19:10;93970.56;;;4.58;53.82
3250;BME280;1637;42.020;23.992;2022-12-20T13:21:40;93974.69;;;4.55;52.98
3250;BME280;1637;42.020;23.992;2022-12-20T13:27:28;93973.69;;;4.11;54.76
3250;BME280;1637;42.020;23.992;2022-12-20T13:35:56;93967.81;;;3.81;54.08
3250;BME280;1637;42.020;23.992;2022-12-20T13:41:37;93946.72;;;3.27;55.36
3250;BME280;1637;42.020;23.992;2022-12-20T13:44:18;94007.72;;;5.22;71.25
3250;BME280;1637;42.020;23.992;2022-12-20T13:46:54;93982.88;;;5.02;52.79
3250;BME280;1637;42.020;23.992;2022-12-20T13:49:27;93976.69;;;4.09;53.52
3250;BME280;1637;42.020;23.992;2022-12-20T13:52:23;93970.06;;;3.58;54.41
3250;BME280;1637;42.020;23.992;2022-12-20T13:54:54;93974.31;;;3.38;55.06
3250;BME280;1637;42.020;23.992;2022-12-20T13:57:28;93974.28;;;3.26;56.38
3250;BME280;1637;42.020;23.992;2022-12-20T14:00:00;93985.00;;;3.30;56.58